Time;durP1;ratioP1;P1;durP2;ratioP2;P2;SDS_P1;SDS_P2;PMS_P1;PMS_P2;Temp;Humidity;BMP_temperature;BMP_pressure;BME280_temperature;BME280_humidity;BME280_pressure;Samples;Min_cycle;Max_cycle;Signal;HPM_P1;HPM_P2
2022/05/16 00:00:09;;;;;;;1.10;1.10;;;21.90;70.60;;;;;;5047683;28;43966;-71
2022/05/16 00:02:38;;;;;;;1.30;1.30;;;22.00;70.10;;;;;;5044768;28;43948;-70
2022/05/16 00:05:07;;;;;;;1.00;1.00;;;22.20;69.00;;;;;;5048156;28;43929;-71
2022/05/16 00:07:37;;;;;;;1.10;1.10;;;22.30;68.30;;;;;;5047715;28;43909;-71
2022/05/16 00:10:05;;;;;;;1.13;1.00;;;22.30;68.50;;;;;;5047395;28;44130;-70
2022/05/16 00:12:33;;;;;;;1.30;1.30;;;22.20;68.30;;;;;;5048145;28;43441;-71
2022/05/16 00:15:01;;;;;;;1.00;1.00;;;22.10;67.90;;;;;;5048246;28;44187;-71
2022/05/16 00:17:29;;;;;;;1.00;1.00;;;22.00;67.40;;;;;;5029390;28;46832;-71
2022/05/16 00:19:57;;;;;;;1.10;1.10;;;22.00;67.50;;;;;;5047312;28;43947;-71
2022/05/16 00:22:25;;;;;;;1.10;1.10;;;21.90;67.70;;;;;;5047666;28;43959;-71
2022/05/16 00:24:55;;;;;;;1.00;1.00;;;21.90;70.20;;;;;;5046628;28;43997;-70
2022/05/16 00:27:22;;;;;;;1.10;1.10;;;21.90;70.60;;;;;;5047331;28;43892;-71
2022/05/16 00:29:50;;;;;;;1.27;1.27;;;22.00;70.10;;;;;;5047178;28;43934;-71
2022/05/16 00:32:18;;;;;;;1.37;1.30;;;22.00;69.50;;;;;;5028960;28;43946;-71
2022/05/16 00:34:46;;;;;;;1.27;1.27;;;22.10;69.10;;;;;;5047326;28;43989;-71
2022/05/16 00:37:14;;;;;;;1.00;1.00;;;22.00;68.80;;;;;;5047333;28;43957;-70
2022/05/16 00:39:42;;;;;;;1.07;1.07;;;21.90;67.90;;;;;;5047379;28;44142;-71
2022/05/16 00:42:13;;;;;;;1.10;1.10;;;21.90;67.90;;;;;;5046884;28;44064;-71
2022/05/16 00:44:41;;;;;;;1.10;1.10;;;21.80;68.00;;;;;;5047553;28;44052;-71
2022/05/16 00:47:11;;;;;;;1.00;1.00;;;21.80;68.20;;;;;;5046750;28;44012;-71
2022/05/16 00:49:45;;;;;;;1.17;1.17;;;21.70;68.20;;;;;;5047193;28;43833;-71
2022/05/16 00:52:15;;;;;;;1.20;1.20;;;21.70;68.30;;;;;;5047343;28;43420;-71
2022/05/16 00:54:44;;;;;;;1.00;1.00;;;21.70;70.00;;;;;;5047434;28;43932;-70
2022/05/16 00:57:18;;;;;;;1.17;1.17;;;21.70;71.00;;;;;;5047062;28;43965;-71
2022/05/16 00:59:52;;;;;;;1.10;1.10;;;21.90;70.80;;;;;;5028621;28;44534;-72
2022/05/16 01:05:09;;;;;;;1.10;1.10;;;22.20;68.80;;;;;;5043050;28;43824;-69
2022/05/16 01:07:38;;;;;;;1.47;1.37;;;22.30;68.90;;;;;;5046928;28;43972;-69
2022/05/16 01:10:06;;;;;;;1.27;1.20;;;22.20;68.60;;;;;;5046700;28;44037;-70
2022/05/16 01:12:37;;;;;;;1.10;1.10;;;22.10;68.30;;;;;;5046973;28;43980;-69
2022/05/16 01:15:06;;;;;;;1.10;1.10;;;22.10;67.90;;;;;;5047286;28;43441;-70
2022/05/16 01:17:34;;;;;;;1.20;1.20;;;22.00;67.60;;;;;;5046305;28;43838;-69
2022/05/16 01:20:02;;;;;;;1.20;1.20;;;21.90;67.80;;;;;;5046941;28;43941;-71
2022/05/16 01:22:32;;;;;;;1.13;1.13;;;21.80;67.90;;;;;;5047037;28;44045;-70
2022/05/16 01:25:03;;;;;;;1.40;1.13;;;21.80;69.60;;;;;;5046690;28;43963;-69
2022/05/16 01:27:40;;;;;;;1.17;1.17;;;21.80;70.50;;;;;;5046680;28;44165;-70
2022/05/16 01:30:09;;;;;;;1.10;1.10;;;21.90;70.40;;;;;;5046507;28;44040;-70
2022/05/16 01:32:37;;;;;;;1.20;1.20;;;22.10;70.10;;;;;;5046389;28;43451;-70
2022/05/16 01:35:06;;;;;;;1.10;1.10;;;22.10;69.30;;;;;;5044199;28;44199;-70
2022/05/16 01:40:21;;;;;;;1.20;1.20;;;22.00;68.30;;;;;;5044654;28;44152;-71
2022/05/16 01:42:49;;;;;;;1.13;1.13;;;21.90;68.00;;;;;;5045990;28;43980;-70
2022/05/16 01:45:17;;;;;;;1.00;1.00;;;21.80;68.10;;;;;;5046683;28;43451;-70
2022/05/16 01:47:46;;;;;;;1.10;1.10;;;21.80;68.20;;;;;;5028004;28;44982;-69
2022/05/16 01:50:13;;;;;;;1.03;1.03;;;21.70;68.30;;;;;;5046734;28;44399;-71
2022/05/16 01:52:43;;;;;;;1.20;1.20;;;21.70;68.30;;;;;;5046533;28;43365;-70
2022/05/16 01:55:11;;;;;;;1.13;1.13;;;21.60;69.50;;;;;;5046305;28;44072;-71
2022/05/16 01:57:39;;;;;;;1.07;1.07;;;21.70;70.90;;;;;;5046131;28;45030;-70
2022/05/16 02:00:09;;;;;;;1.20;1.20;;;21.80;70.80;;;;;;5046152;28;44000;-70
2022/05/16 02:02:41;;;;;;;1.10;1.10;;;22.00;70.40;;;;;;5046228;28;44048;-71
2022/05/16 02:05:09;;;;;;;1.00;1.00;;;22.20;69.90;;;;;;5046046;28;43917;-69
2022/05/16 02:07:37;;;;;;;1.10;1.10;;;22.30;68.40;;;;;;5045891;28;43917;-70
2022/05/16 02:10:07;;;;;;;1.20;1.20;;;22.40;68.20;;;;;;5045925;28;44085;-71
2022/05/16 02:12:36;;;;;;;1.17;1.17;;;22.30;68.10;;;;;;5046097;28;43923;-69
2022/05/16 02:15:04;;;;;;;1.20;1.20;;;22.20;68.00;;;;;;5046848;28;44288;-70
2022/05/16 02:17:33;;;;;;;1.30;1.30;;;22.10;67.90;;;;;;5046214;28;45004;-71
2022/05/16 02:20:01;;;;;;;1.10;1.10;;;22.00;67.50;;;;;;5045881;28;43411;-71
2022/05/16 02:25:16;;;;;;;1.00;1.00;;;21.90;68.00;;;;;;5046162;28;43972;-70
2022/05/16 02:27:45;;;;;;;1.27;1.27;;;21.90;70.60;;;;;;5045800;28;43861;-70
2022/05/16 02:30:14;;;;;;;1.03;1.03;;;21.90;70.60;;;;;;5045781;28;43949;-70
2022/05/16 02:32:42;;;;;;;1.30;1.30;;;22.00;69.80;;;;;;5045819;28;44016;-68
2022/05/16 02:35:10;;;;;;;1.30;1.30;;;22.10;69.30;;;;;;5045719;28;43981;-70
2022/05/16 02:37:38;;;;;;;1.00;1.00;;;22.00;69.70;;;;;;5043871;28;44258;-70
2022/05/16 02:40:07;;;;;;;1.30;1.30;;;22.00;68.60;;;;;;5045589;28;44032;-70
2022/05/16 02:42:36;;;;;;;0.90;0.90;;;21.90;67.90;;;;;;5045626;28;43488;-69
2022/05/16 02:45:05;;;;;;;1.40;1.40;;;21.80;68.00;;;;;;5046108;28;43992;-69
2022/05/16 02:47:33;;;;;;;1.30;1.30;;;21.80;68.20;;;;;;5046432;28;44008;-69
2022/05/16 02:50:02;;;;;;;1.20;1.20;;;21.80;68.30;;;;;;5048774;28;43937;-69
2022/05/16 02:52:30;;;;;;;1.10;1.10;;;21.70;68.30;;;;;;5049115;28;43967;-70
2022/05/16 02:55:00;;;;;;;1.20;1.20;;;21.70;68.60;;;;;;5048839;28;43847;-70
2022/05/16 02:57:28;;;;;;;1.20;1.20;;;21.70;70.80;;;;;;5042280;28;43867;-71
2022/05/16 02:59:59;;;;;;;1.13;1.13;;;21.80;71.00;;;;;;5042143;28;43440;-70
2022/05/16 03:02:27;;;;;;;1.17;1.17;;;22.00;70.60;;;;;;5042565;28;43970;-70
2022/05/16 03:04:55;;;;;;;1.40;1.40;;;22.10;69.90;;;;;;5049189;28;43454;-71
2022/05/16 03:07:23;;;;;;;1.10;1.10;;;22.20;68.90;;;;;;5048775;28;43957;-69
2022/05/16 03:09:51;;;;;;;0.90;0.90;;;22.30;68.70;;;;;;5048460;28;44021;-71
2022/05/16 03:12:19;;;;;;;1.20;1.20;;;22.20;68.30;;;;;;5048622;28;43992;-70
2022/05/16 03:14:46;;;;;;;1.40;1.40;;;22.20;68.10;;;;;;5048809;28;43901;-70
2022/05/16 03:17:16;;;;;;;1.33;1.33;;;22.00;68.00;;;;;;5048303;28;43913;-70
2022/05/16 03:19:44;;;;;;;1.20;1.20;;;22.00;67.70;;;;;;5048274;28;44065;-70
2022/05/16 03:22:12;;;;;;;1.23;1.23;;;21.90;68.50;;;;;;5048667;28;44095;-70
2022/05/16 03:24:40;;;;;;;1.23;1.20;;;21.80;68.00;;;;;;5048915;28;43957;-70
2022/05/16 03:27:09;;;;;;;1.20;1.20;;;21.80;70.10;;;;;;5048527;28;43866;-70
2022/05/16 03:29:37;;;;;;;1.20;1.20;;;21.80;70.70;;;;;;5048494;28;44025;-70
2022/05/16 03:32:07;;;;;;;1.20;1.20;;;22.00;70.30;;;;;;5048113;28;43989;-70
2022/05/16 03:34:37;;;;;;;1.30;1.30;;;22.10;69.40;;;;;;5048275;28;43976;-71
2022/05/16 03:37:05;;;;;;;1.27;1.27;;;22.20;68.40;;;;;;5046631;28;46041;-69
2022/05/16 03:42:18;;;;;;;1.37;1.37;;;22.20;68.40;;;;;;5047982;28;44005;-69
2022/05/16 03:44:46;;;;;;;1.00;1.00;;;22.10;68.20;;;;;;5048405;28;43910;-71
2022/05/16 03:47:14;;;;;;;1.20;1.20;;;22.00;67.80;;;;;;5029650;28;45087;-70
2022/05/16 03:49:43;;;;;;;1.30;1.30;;;21.90;67.70;;;;;;5047970;28;44103;-70
2022/05/16 03:52:11;;;;;;;1.10;1.10;;;21.90;67.90;;;;;;5048140;28;43927;-70
2022/05/16 03:54:42;;;;;;;1.20;1.20;;;21.80;68.10;;;;;;5047521;28;43964;-70
2022/05/16 03:57:10;;;;;;;1.20;1.20;;;21.70;70.30;;;;;;5048151;28;44007;-70
2022/05/16 03:59:38;;;;;;;1.17;1.17;;;21.80;71.40;;;;;;5048459;28;43946;-70
2022/05/16 04:02:08;;;;;;;1.20;1.20;;;21.90;70.20;;;;;;5048056;28;43443;-69
2022/05/16 04:04:36;;;;;;;1.20;1.20;;;22.00;70.00;;;;;;5048935;28;43874;-70
2022/05/16 04:07:05;;;;;;;1.07;1.07;;;22.00;69.30;;;;;;5048061;28;44043;-69
2022/05/16 04:09:33;;;;;;;1.20;1.20;;;21.90;69.10;;;;;;5048271;28;43798;-70
2022/05/16 04:12:01;;;;;;;1.20;1.20;;;21.90;68.90;;;;;;5048620;28;43934;-71
2022/05/16 04:14:29;;;;;;;1.10;1.10;;;21.80;68.10;;;;;;5048571;28;43421;-70
2022/05/16 04:16:58;;;;;;;1.10;1.10;;;21.70;68.20;;;;;;5047489;28;44025;-70
2022/05/16 04:19:26;;;;;;;1.20;1.20;;;21.70;68.30;;;;;;5048142;28;43958;-71
2022/05/16 04:21:54;;;;;;;1.20;1.20;;;21.70;68.50;;;;;;5048131;28;43380;-69
2022/05/16 04:24:23;;;;;;;1.20;1.20;;;21.60;68.50;;;;;;5030156;28;43538;-70
2022/05/16 04:26:51;;;;;;;1.10;1.10;;;21.60;70.40;;;;;;5047712;28;43937;-70
2022/05/16 04:29:19;;;;;;;1.20;1.20;;;21.70;71.10;;;;;;5047723;28;44492;-69
2022/05/16 04:31:50;;;;;;;1.30;1.30;;;21.80;71.10;;;;;;5047539;28;43934;-69
2022/05/16 04:34:18;;;;;;;1.23;1.23;;;22.00;70.30;;;;;;5047882;28;44045;-70
2022/05/16 04:36:46;;;;;;;1.20;1.20;;;22.20;69.30;;;;;;5047701;28;44020;-70
2022/05/16 04:39:14;;;;;;;1.13;1.10;;;22.20;68.50;;;;;;5047431;28;43941;-70
2022/05/16 04:44:28;;;;;;;1.07;1.07;;;22.20;68.40;;;;;;5041505;28;43955;-69
2022/05/16 04:46:56;;;;;;;1.23;1.23;;;22.10;68.50;;;;;;5040857;28;43932;-70
2022/05/16 04:49:24;;;;;;;1.33;1.30;;;22.00;67.80;;;;;;5041274;28;43879;-70
2022/05/16 04:51:52;;;;;;;1.23;1.23;;;21.90;67.70;;;;;;5041185;28;43498;-71
2022/05/16 04:54:20;;;;;;;1.20;1.10;;;21.90;68.00;;;;;;5041323;28;43943;-70
2022/05/16 04:56:51;;;;;;;1.20;1.20;;;21.80;70.10;;;;;;5040981;28;45095;-69
2022/05/16 04:59:19;;;;;;;1.10;1.10;;;21.80;70.70;;;;;;5041251;28;43985;-69
2022/05/16 05:01:47;;;;;;;1.40;1.40;;;22.00;69.90;;;;;;5047303;28;43351;-71
2022/05/16 05:04:16;;;;;;;1.30;1.30;;;22.10;69.70;;;;;;5029402;28;43926;-70
2022/05/16 05:06:44;;;;;;;1.60;1.50;;;22.00;69.60;;;;;;5028793;28;46900;-70
2022/05/16 05:09:12;;;;;;;1.50;1.40;;;21.90;69.20;;;;;;5047117;28;43937;-70
2022/05/16 05:14:32;;;;;;;1.40;1.40;;;21.80;68.30;;;;;;5047604;28;43974;-70
2022/05/16 05:17:00;;;;;;;1.40;1.40;;;21.80;68.40;;;;;;5047089;28;43877;-70
2022/05/16 05:19:28;;;;;;;1.30;1.30;;;21.70;68.40;;;;;;5045050;28;46226;-70
2022/05/16 05:21:57;;;;;;;1.50;1.50;;;21.70;68.60;;;;;;5047132;28;44067;-69
2022/05/16 05:24:25;;;;;;;1.30;1.30;;;21.60;68.50;;;;;;5047290;28;43740;-69
2022/05/16 05:26:53;;;;;;;1.40;1.40;;;21.60;70.80;;;;;;5046882;28;43941;-69
2022/05/16 05:29:22;;;;;;;1.20;1.20;;;21.70;71.60;;;;;;5046848;28;44058;-70
2022/05/16 05:31:52;;;;;;;1.50;1.50;;;21.90;72.10;;;;;;5046649;28;43961;-70
2022/05/16 05:34:20;;;;;;;1.43;1.43;;;22.10;70.20;;;;;;5047119;28;44016;-69
2022/05/16 05:36:48;;;;;;;1.30;1.30;;;22.20;69.60;;;;;;5046918;28;43985;-69
2022/05/16 05:39:17;;;;;;;1.30;1.30;;;22.30;69.20;;;;;;5028508;28;45253;-70
2022/05/16 05:41:45;;;;;;;1.30;1.30;;;22.30;69.00;;;;;;5046401;28;44028;-69
2022/05/16 05:44:13;;;;;;;1.50;1.50;;;22.20;68.70;;;;;;5047527;28;43985;-70
2022/05/16 05:46:41;;;;;;;1.30;1.30;;;22.10;68.20;;;;;;5046771;28;43932;-69
2022/05/16 05:49:11;;;;;;;1.50;1.50;;;22.10;68.60;;;;;;5046543;28;44012;-70
2022/05/16 05:51:39;;;;;;;1.60;1.60;;;21.90;67.90;;;;;;5046907;28;43976;-69
2022/05/16 05:54:07;;;;;;;1.40;1.40;;;21.80;67.90;;;;;;5046785;28;43456;-69
2022/05/16 05:56:35;;;;;;;1.50;1.50;;;21.80;70.60;;;;;;5046287;28;43943;-70
2022/05/16 05:59:03;;;;;;;1.43;1.43;;;21.90;71.20;;;;;;5047084;28;43976;-70
2022/05/16 06:01:32;;;;;;;1.50;1.50;;;22.00;70.60;;;;;;5046724;28;43881;-70
2022/05/16 06:04:00;;;;;;;1.50;1.50;;;22.00;69.70;;;;;;5047140;28;44084;-70
2022/05/16 06:06:29;;;;;;;1.50;1.50;;;22.00;69.50;;;;;;5046380;28;43627;-70
2022/05/16 06:08:58;;;;;;;1.50;1.50;;;22.00;68.70;;;;;;5046480;28;43950;-70
2022/05/16 06:11:28;;;;;;;1.50;1.50;;;21.90;69.00;;;;;;5046297;28;43873;-70
2022/05/16 06:13:58;;;;;;;1.43;1.43;;;21.80;68.10;;;;;;5046968;28;43894;-69
2022/05/16 06:16:26;;;;;;;1.37;1.37;;;21.70;68.20;;;;;;5046287;28;44044;-69
2022/05/16 06:18:54;;;;;;;1.40;1.40;;;21.70;68.40;;;;;;5028062;28;44731;-70
2022/05/16 06:21:22;;;;;;;1.40;1.40;;;21.70;68.50;;;;;;5046269;28;43948;-70
2022/05/16 06:23:51;;;;;;;1.57;1.57;;;21.60;68.50;;;;;;5031046;28;44018;-69
2022/05/16 06:26:19;;;;;;;1.40;1.40;;;21.60;70.40;;;;;;5031136;28;46029;-71
2022/05/16 06:28:47;;;;;;;1.37;1.37;;;21.70;71.10;;;;;;5049534;28;43929;-70
2022/05/16 06:31:14;;;;;;;1.40;1.40;;;21.80;71.40;;;;;;5049711;28;43456;-70
2022/05/16 06:33:46;;;;;;;1.70;1.60;;;22.00;70.30;;;;;;5049871;28;44040;-70
2022/05/16 06:36:15;;;;;;;1.63;1.63;;;22.20;69.70;;;;;;5043129;28;43914;-70
2022/05/16 06:38:43;;;;;;;1.50;1.50;;;22.20;69.10;;;;;;5031225;28;45135;-69
2022/05/16 06:41:12;;;;;;;1.30;1.30;;;22.20;69.20;;;;;;5049311;28;43885;-70
2022/05/16 06:43:40;;;;;;;1.50;1.50;;;22.20;68.50;;;;;;5031459;28;43568;-70
2022/05/16 06:46:08;;;;;;;1.57;1.57;;;22.10;68.10;;;;;;5049373;28;43717;-69
2022/05/16 06:48:36;;;;;;;1.50;1.50;;;22.00;68.10;;;;;;5049223;28;43441;-69
2022/05/16 06:51:04;;;;;;;1.40;1.40;;;21.90;67.80;;;;;;5049783;28;43936;-70
2022/05/16 06:53:32;;;;;;;1.53;1.43;;;21.80;68.00;;;;;;5049987;28;43941;-70
2022/05/16 06:56:00;;;;;;;1.50;1.50;;;21.80;68.30;;;;;;5049335;28;45103;-70
2022/05/16 06:58:30;;;;;;;1.47;1.47;;;21.70;70.90;;;;;;5049355;28;43968;-69
2022/05/16 07:00:58;;;;;;;1.50;1.50;;;21.80;71.30;;;;;;5048906;28;43900;-71
2022/05/16 07:03:26;;;;;;;1.43;1.43;;;22.00;70.30;;;;;;5049338;28;43894;-69
2022/05/16 07:05:55;;;;;;;1.23;1.23;;;22.00;69.90;;;;;;5048689;28;43976;-69
2022/05/16 07:08:23;;;;;;;1.30;1.30;;;22.00;69.60;;;;;;5049004;28;43797;-69
2022/05/16 07:10:51;;;;;;;1.70;1.70;;;21.90;69.10;;;;;;5048935;28;43960;-70
2022/05/16 07:13:23;;;;;;;1.50;1.50;;;21.90;68.90;;;;;;5049596;28;44025;-69
2022/05/16 07:15:52;;;;;;;1.33;1.33;;;21.80;68.10;;;;;;5030667;28;45752;-70
2022/05/16 07:18:20;;;;;;;1.30;1.30;;;21.80;68.30;;;;;;5048833;28;43411;-70
2022/05/16 07:20:48;;;;;;;1.60;1.60;;;21.70;68.40;;;;;;5035230;28;44036;-70
2022/05/16 07:23:16;;;;;;;1.43;1.43;;;21.60;68.40;;;;;;5049205;28;44284;-70
2022/05/16 07:28:26;;;;;;;1.50;1.50;;;21.60;69.50;;;;;;4997479;28;45228;-70
2022/05/16 07:30:55;;;;;;;1.57;1.53;;;21.60;71.20;;;;;;5048693;28;44014;-70
2022/05/16 07:33:23;;;;;;;1.60;1.50;;;21.80;71.40;;;;;;5048542;28;43961;-70
2022/05/16 07:35:52;;;;;;;1.47;1.47;;;22.00;71.20;;;;;;5048292;28;44029;-69
2022/05/16 07:38:21;;;;;;;1.60;1.60;;;22.10;69.70;;;;;;5048844;28;44184;-69
2022/05/16 07:40:48;;;;;;;1.60;1.60;;;22.30;69.10;;;;;;5048825;28;43936;-70
2022/05/16 07:43:17;;;;;;;1.50;1.50;;;22.30;68.30;;;;;;5048699;28;44422;-70
2022/05/16 07:45:45;;;;;;;1.60;1.50;;;22.30;68.80;;;;;;5048367;28;43670;-71
2022/05/16 07:48:15;;;;;;;1.50;1.50;;;22.20;68.10;;;;;;5048265;28;43402;-70
2022/05/16 07:50:43;;;;;;;1.60;1.60;;;22.10;67.60;;;;;;5048552;28;43780;-71
2022/05/16 07:53:12;;;;;;;1.50;1.50;;;22.00;67.40;;;;;;5048484;28;43998;-70
2022/05/16 07:55:41;;;;;;;1.50;1.50;;;21.90;67.10;;;;;;5047985;28;44012;-70
2022/05/16 07:58:09;;;;;;;1.60;1.50;;;21.90;67.80;;;;;;5048162;28;43891;-70
2022/05/16 08:00:37;;;;;;;1.60;1.60;;;21.80;70.60;;;;;;5029983;28;44004;-70
2022/05/16 08:03:05;;;;;;;1.50;1.50;;;21.90;71.20;;;;;;5048765;28;44454;-70
2022/05/16 08:05:35;;;;;;;1.70;1.70;;;22.00;70.30;;;;;;5048497;28;43985;-70
2022/05/16 08:10:51;;;;;;;1.60;1.60;;;22.00;68.90;;;;;;5048096;28;43886;-71
2022/05/16 08:13:19;;;;;;;1.67;1.63;;;21.90;67.80;;;;;;5048562;28;43457;-70
2022/05/16 08:15:47;;;;;;;1.70;1.70;;;21.80;67.80;;;;;;5047924;28;43997;-69
2022/05/16 08:18:15;;;;;;;1.63;1.63;;;21.80;67.90;;;;;;5047881;28;43911;-70
2022/05/16 08:20:46;;;;;;;1.40;1.40;;;21.70;68.20;;;;;;5048152;28;43989;-70
2022/05/16 08:23:15;;;;;;;1.70;1.70;;;21.70;68.50;;;;;;5048010;28;44052;-70
2022/05/16 08:25:44;;;;;;;1.90;1.90;;;21.60;68.50;;;;;;5047899;28;43885;-69
2022/05/16 08:28:12;;;;;;;1.57;1.57;;;21.60;68.80;;;;;;5047924;28;43913;-70
2022/05/16 08:30:40;;;;;;;1.73;1.73;;;21.60;71.20;;;;;;5047781;28;43688;-69
2022/05/16 08:33:07;;;;;;;1.60;1.60;;;21.70;71.00;;;;;;5048061;28;43866;-70
2022/05/16 08:35:35;;;;;;;1.70;1.70;;;21.90;70.70;;;;;;5047453;28;43927;-69
2022/05/16 08:40:56;;;;;;;1.60;1.60;;;22.20;69.50;;;;;;5048062;28;43417;-70
2022/05/16 08:43:50;;;;;;;1.50;1.50;;;22.20;69.10;;;;;;5047874;28;43937;-70
2022/05/16 08:46:24;;;;;;;1.60;1.60;;;22.10;69.00;;;;;;5042339;28;44562;-70
2022/05/16 08:49:05;;;;;;;1.80;1.80;;;22.00;68.00;;;;;;5047301;28;43913;-70
2022/05/16 08:51:33;;;;;;;1.40;1.40;;;22.00;67.90;;;;;;5047894;28;43995;-71
2022/05/16 08:54:06;;;;;;;1.40;1.40;;;21.80;68.00;;;;;;5048093;28;43969;-69
2022/05/16 08:56:35;;;;;;;1.70;1.60;;;21.80;68.20;;;;;;5047431;28;43945;-71
2022/05/16 08:59:05;;;;;;;1.77;1.70;;;21.70;68.50;;;;;;5047124;28;43933;-69
2022/05/16 09:01:35;;;;;;;1.67;1.67;;;21.70;70.90;;;;;;5047579;28;43365;-70
2022/05/16 09:04:04;;;;;;;1.70;1.70;;;21.80;70.90;;;;;;5047800;28;43941;-69
2022/05/16 09:06:34;;;;;;;1.70;1.70;;;22.00;70.40;;;;;;5039243;28;46443;-70
2022/05/16 09:09:08;;;;;;;1.40;1.40;;;22.10;69.70;;;;;;5041243;28;44052;-70
2022/05/16 09:11:38;;;;;;;1.77;1.77;;;22.20;69.50;;;;;;5041797;28;43930;-70
2022/05/16 09:14:08;;;;;;;1.60;1.60;;;22.10;69.30;;;;;;5047525;28;44016;-69
2022/05/16 09:16:39;;;;;;;1.70;1.70;;;22.10;69.10;;;;;;5046868;28;43941;-70
2022/05/16 09:19:17;;;;;;;1.60;1.60;;;22.00;68.00;;;;;;5046982;28;44080;-70
2022/05/16 09:21:47;;;;;;;1.83;1.80;;;21.90;68.00;;;;;;5047215;28;43953;-70
2022/05/16 09:24:17;;;;;;;1.53;1.53;;;21.80;68.20;;;;;;5047525;28;44039;-71
2022/05/16 09:26:50;;;;;;;1.50;1.50;;;21.80;68.40;;;;;;5044951;28;46302;-70
2022/05/16 09:29:22;;;;;;;1.60;1.60;;;21.70;68.40;;;;;;5046968;28;44233;-70
2022/05/16 09:31:52;;;;;;;1.70;1.70;;;21.70;70.70;;;;;;5046795;28;44311;-70
2022/05/16 09:34:27;;;;;;;1.60;1.60;;;21.70;70.80;;;;;;5044977;28;44092;-70
2022/05/16 09:36:55;;;;;;;1.60;1.60;;;21.90;70.70;;;;;;5046564;28;43918;-69
2022/05/16 09:39:25;;;;;;;1.73;1.73;;;21.90;70.20;;;;;;5046683;28;44061;-70
2022/05/16 09:41:56;;;;;;;1.50;1.50;;;21.90;69.60;;;;;;5046185;28;43442;-69
2022/05/16 09:44:26;;;;;;;1.53;1.53;;;21.90;68.60;;;;;;5041057;28;43956;-70
2022/05/16 09:47:18;;;;;;;1.50;1.50;;;21.80;68.30;;;;;;5046890;28;43943;-71
2022/05/16 09:49:47;;;;;;;1.60;1.60;;;21.70;68.40;;;;;;5028437;28;45046;-70
2022/05/16 09:52:16;;;;;;;1.60;1.60;;;21.70;68.60;;;;;;5046565;28;43368;-71
2022/05/16 09:54:46;;;;;;;1.50;1.50;;;21.60;68.60;;;;;;5047121;28;44224;-70
2022/05/16 09:57:17;;;;;;;1.83;1.83;;;21.60;68.80;;;;;;5048226;28;45032;-70
2022/05/16 09:59:48;;;;;;;1.67;1.67;;;21.60;68.90;;;;;;5050242;28;44373;-69
2022/05/16 10:02:21;;;;;;;1.73;1.73;;;21.50;70.70;;;;;;5050153;28;43956;-70
2022/05/16 10:04:55;;;;;;;1.67;1.67;;;21.70;71.00;;;;;;5050438;28;44110;-69
2022/05/16 10:07:28;;;;;;;1.50;1.50;;;21.80;70.90;;;;;;5050065;28;44608;-70
2022/05/16 10:09:58;;;;;;;1.50;1.50;;;22.00;70.50;;;;;;5044384;28;43730;-70
2022/05/16 10:12:27;;;;;;;1.73;1.70;;;22.20;69.40;;;;;;5049702;28;44029;-70
2022/05/16 10:14:55;;;;;;;1.50;1.50;;;22.20;68.70;;;;;;5050493;28;43996;-70
2022/05/16 10:17:30;;;;;;;1.60;1.60;;;22.20;68.80;;;;;;5049744;28;43964;-69
2022/05/16 10:20:00;;;;;;;1.60;1.60;;;22.20;69.00;;;;;;5031612;28;44006;-70
2022/05/16 10:22:28;;;;;;;1.20;1.20;;;22.00;68.20;;;;;;5049813;28;44061;-71
2022/05/16 10:25:19;;;;;;;1.40;1.40;;;21.90;67.80;;;;;;5050191;28;43990;-69
2022/05/16 10:27:48;;;;;;;1.40;1.40;;;21.90;68.20;;;;;;5049763;28;44850;-70
2022/05/16 10:30:21;;;;;;;1.40;1.40;;;21.80;68.20;;;;;;5049766;28;43853;-71
2022/05/16 10:35:40;;;;;;;1.53;1.53;;;21.80;70.80;;;;;;5046190;28;43936;-70
2022/05/16 10:38:16;;;;;;;1.60;1.60;;;21.90;70.90;;;;;;5049482;28;44021;-69
2022/05/16 10:40:48;;;;;;;1.40;1.40;;;22.00;69.40;;;;;;5049301;28;43899;-70
2022/05/16 10:43:24;;;;;;;1.70;1.70;;;21.90;69.80;;;;;;5049238;28;43925;-69
2022/05/16 10:45:54;;;;;;;1.50;1.50;;;21.90;68.50;;;;;;5050058;28;43453;-70
2022/05/16 10:48:25;;;;;;;1.50;1.50;;;21.80;68.20;;;;;;5049316;28;44032;-69
2022/05/16 10:50:55;;;;;;;1.37;1.37;;;21.80;68.50;;;;;;5049480;28;43404;-69
2022/05/16 10:53:24;;;;;;;1.70;1.70;;;21.70;68.50;;;;;;5036070;28;43844;-70
2022/05/16 10:55:55;;;;;;;1.60;1.60;;;21.70;68.80;;;;;;5043317;28;43886;-70
2022/05/16 10:58:29;;;;;;;1.50;1.50;;;21.60;68.80;;;;;;5049205;28;43893;-70
2022/05/16 11:01:00;;;;;;;1.77;1.67;;;21.60;68.90;;;;;;5049165;28;43914;-70
2022/05/16 11:04:10;;;;;;;1.63;1.53;;;21.60;70.90;;;;;;5049254;28;44210;-70
2022/05/16 11:06:46;;;;;;;1.47;1.47;;;21.70;71.20;;;;;;5037302;28;43794;-70
2022/05/16 11:09:18;;;;;;;1.40;1.40;;;21.90;70.60;;;;;;5048093;28;43819;-70
2022/05/16 11:11:51;;;;;;;1.30;1.30;;;22.10;70.20;;;;;;5049112;28;44023;-70
2022/05/16 11:14:23;;;;;;;1.67;1.53;;;22.20;69.40;;;;;;5049214;28;44068;-69
2022/05/16 11:16:51;;;;;;;1.60;1.60;;;22.20;69.10;;;;;;5047606;28;44256;-70
2022/05/16 11:19:24;;;;;;;1.57;1.57;;;22.20;68.90;;;;;;5030280;28;45885;-71
2022/05/16 11:21:56;;;;;;;1.37;1.37;;;22.10;69.00;;;;;;5049131;28;43396;-71
2022/05/16 11:24:33;;;;;;;1.50;1.50;;;22.00;68.00;;;;;;5048852;28;43946;-70
2022/05/16 11:27:10;;;;;;;1.30;1.30;;;21.90;68.10;;;;;;5049564;28;43468;-70
2022/05/16 11:29:42;;;;;;;1.30;1.30;;;21.80;68.30;;;;;;5043009;28;43955;-70
2022/05/16 11:32:26;;;;;;;1.50;1.50;;;21.70;69.90;;;;;;5046977;28;45238;-70
2022/05/16 11:35:01;;;;;;;1.30;1.30;;;21.80;70.80;;;;;;5048611;28;43932;-70
2022/05/16 11:37:36;;;;;;;1.40;1.40;;;21.90;70.60;;;;;;5030982;28;43528;-70
2022/05/16 11:40:07;;;;;;;1.40;1.40;;;21.90;70.20;;;;;;5048918;28;43965;-70
2022/05/16 11:42:42;;;;;;;1.30;1.30;;;21.90;69.90;;;;;;5048641;28;44466;-70
2022/05/16 11:45:20;;;;;;;1.60;1.60;;;21.80;68.80;;;;;;5042371;28;44096;-70
2022/05/16 11:47:52;;;;;;;1.40;1.40;;;21.80;68.60;;;;;;5049079;28;43410;-70
2022/05/16 11:50:43;;;;;;;1.30;1.30;;;21.70;68.60;;;;;;5047849;28;45811;-70
2022/05/16 11:53:32;;;;;;;1.30;1.30;;;21.60;68.80;;;;;;5048351;28;44005;-70
2022/05/16 12:01:36;;;;;;;1.47;1.40;;;21.60;70.40;;;;;;5041707;28;43890;-70
2022/05/16 12:04:07;;;;;;;1.37;1.37;;;21.60;71.30;;;;;;5042115;28;43413;-71
2022/05/16 12:06:36;;;;;;;1.70;1.33;;;21.80;71.40;;;;;;5048371;28;43941;-69
2022/05/16 12:09:15;;;;;;;1.30;1.30;;;22.00;70.50;;;;;;5048691;28;43441;-71
2022/05/16 12:11:54;;;;;;;1.23;1.23;;;22.10;70.00;;;;;;5047977;28;43969;-70
2022/05/16 12:14:32;;;;;;;1.50;1.50;;;22.20;69.40;;;;;;5047858;28;43984;-69
2022/05/16 12:17:17;;;;;;;1.30;1.30;;;22.10;69.40;;;;;;5048182;28;43933;-70
2022/05/16 12:19:46;;;;;;;1.30;1.30;;;22.00;69.10;;;;;;5048301;28;43876;-70
2022/05/16 12:22:17;;;;;;;1.20;1.10;;;22.00;68.60;;;;;;5047899;28;44353;-70
2022/05/16 12:25:08;;;;;;;1.30;1.30;;;21.90;68.40;;;;;;5029542;28;44665;-70
2022/05/16 12:27:38;;;;;;;1.20;1.20;;;21.80;68.60;;;;;;5038814;28;43818;-70
2022/05/16 12:30:08;;;;;;;1.40;1.40;;;21.70;68.70;;;;;;5048524;28;43976;-70
2022/05/16 12:32:59;;;;;;;1.20;1.20;;;21.70;71.30;;;;;;5047603;28;43755;-70
2022/05/16 12:35:48;;;;;;;1.27;1.27;;;21.80;71.50;;;;;;5042460;28;44126;-69
2022/05/16 12:38:18;;;;;;;1.30;1.30;;;21.90;70.60;;;;;;5042943;28;43913;-70
2022/05/16 12:41:40;;;;;;;1.20;1.20;;;21.90;70.30;;;;;;5048150;28;43433;-70
2022/05/16 12:44:29;;;;;;;1.60;1.60;;;21.90;69.70;;;;;;5043062;28;44667;-70
2022/05/16 12:47:23;;;;;;;1.20;1.20;;;21.80;68.80;;;;;;5041057;28;43557;-70
2022/05/16 12:49:59;;;;;;;1.20;1.20;;;21.70;68.90;;;;;;5047647;28;44062;-70
2022/05/16 12:52:55;;;;;;;1.40;1.40;;;21.60;69.00;;;;;;5048065;28;43973;-70
2022/05/16 12:55:29;;;;;;;1.37;1.30;;;21.60;69.20;;;;;;5047506;28;44031;-70
2022/05/16 12:58:02;;;;;;;1.20;1.20;;;21.60;69.40;;;;;;5047607;28;44011;-69
2022/05/16 13:00:33;;;;;;;1.23;1.23;;;21.50;70.20;;;;;;5047749;28;44000;-70
2022/05/16 13:03:14;;;;;;;1.37;1.37;;;21.60;71.70;;;;;;5047906;28;43889;-70
2022/05/16 13:05:46;;;;;;;1.20;1.20;;;21.70;71.20;;;;;;5047558;28;44017;-70
2022/05/16 13:08:38;;;;;;;1.40;1.40;;;21.90;71.10;;;;;;5047313;28;43401;-69
2022/05/16 13:11:12;;;;;;;1.60;1.60;;;22.10;70.40;;;;;;5045727;28;43368;-70
2022/05/16 13:13:46;;;;;;;1.40;1.40;;;22.20;69.60;;;;;;5047814;28;43902;-69
2022/05/16 13:16:20;;;;;;;1.10;1.10;;;22.20;69.50;;;;;;5029247;28;45297;-70
2022/05/16 13:18:52;;;;;;;1.20;1.20;;;22.10;69.30;;;;;;5040348;28;43993;-70
2022/05/16 13:21:21;;;;;;;1.43;1.30;;;22.00;69.00;;;;;;5040879;28;44444;-71
2022/05/16 13:23:49;;;;;;;1.40;1.30;;;21.90;68.40;;;;;;5047233;28;43353;-69
2022/05/16 13:31:50;;;;;;;1.30;1.30;;;21.70;70.00;;;;;;5046482;28;43996;-70
2022/05/16 13:34:32;;;;;;;1.10;1.10;;;21.70;71.20;;;;;;5047067;28;43973;-70
2022/05/16 13:37:01;;;;;;;1.40;1.40;;;21.80;71.10;;;;;;5047043;28;44013;-70
2022/05/16 13:39:34;;;;;;;1.40;1.40;;;21.90;70.50;;;;;;5046591;28;43993;-70
2022/05/16 13:42:02;;;;;;;1.30;1.30;;;21.90;70.60;;;;;;5028839;28;44016;-69
2022/05/16 13:44:34;;;;;;;1.30;1.30;;;21.80;69.50;;;;;;5047270;28;43444;-70